createdAt,value
2022-09-13T00:01:28.888Z,14.02
2022-09-13T00:03:56.101Z,11.25
2022-09-13T00:06:23.218Z,11.07
2022-09-13T00:08:50.615Z,10.32
2022-09-13T00:11:18.863Z,8.88
2022-09-13T00:13:46.002Z,8.38
2022-09-13T00:16:13.791Z,5.20
2022-09-13T00:18:41.171Z,5.13
2022-09-13T00:21:08.880Z,6.53
2022-09-13T00:23:36.488Z,5.05
2022-09-13T00:26:04.704Z,8.75
2022-09-13T00:28:31.783Z,5.18
2022-09-13T00:31:02.504Z,5.22
2022-09-13T00:33:29.603Z,5.30
2022-09-13T00:35:56.725Z,5.05
2022-09-13T00:38:23.985Z,6.57
2022-09-13T00:40:51.072Z,4.32
2022-09-13T00:43:19.164Z,5.05
2022-09-13T00:45:46.533Z,6.18
2022-09-13T00:48:20.910Z,6.15
2022-09-13T00:50:52.606Z,5.38
2022-09-13T00:53:25.078Z,8.52
2022-09-13T00:56:02.615Z,6.65
2022-09-13T00:58:29.677Z,7.00
2022-09-13T01:00:57.852Z,6.57
2022-09-13T01:03:25.276Z,6.35
2022-09-13T01:05:57.248Z,6.25
2022-09-13T01:08:24.401Z,6.25
2022-09-13T01:10:51.813Z,6.20
2022-09-13T01:13:20.074Z,6.57
2022-09-13T01:15:47.232Z,7.00
2022-09-13T01:18:14.353Z,6.43
2022-09-13T01:20:45.862Z,6.38
2022-09-13T01:23:31.216Z,7.22
2022-09-13T01:26:01.041Z,8.55
2022-09-13T01:28:30.937Z,9.68
2022-09-13T01:31:03.083Z,9.40
2022-09-13T01:33:39.314Z,7.65
2022-09-13T01:36:19.997Z,6.22
2022-09-13T01:38:53.817Z,8.40
2022-09-13T01:41:24.895Z,9.35
2022-09-13T01:44:05.439Z,10.63
2022-09-13T01:46:58.893Z,9.70
2022-09-13T01:49:29.865Z,10.25
2022-09-13T01:52:05.975Z,10.15
2022-09-13T01:54:45.132Z,9.60
2022-09-13T01:57:15.007Z,10.73
2022-09-13T01:59:49.862Z,10.95
2022-09-13T02:02:27.823Z,11.82
2022-09-13T02:04:59.532Z,14.13
2022-09-13T02:07:34.839Z,22.58
2022-09-13T02:10:04.474Z,22.60
2022-09-13T02:12:32.061Z,36.90
2022-09-13T02:15:09.571Z,50.78
2022-09-13T02:17:38.317Z,88.70
2022-09-13T02:20:17.258Z,95.65
2022-09-13T02:22:46.883Z,104.90
2022-09-13T02:25:14.727Z,88.93
2022-09-13T02:27:42.065Z,88.43
2022-09-13T02:30:10.234Z,71.55
2022-09-13T02:32:40.603Z,54.17
2022-09-13T02:35:20.745Z,38.00
2022-09-13T02:37:49.254Z,31.92
2022-09-13T02:40:21.478Z,26.33
2022-09-13T02:42:53.410Z,21.30
2022-09-13T02:45:20.506Z,21.90
2022-09-13T02:48:07.875Z,24.45
2022-09-13T02:50:42.610Z,22.25
2022-09-13T02:53:15.799Z,25.88
2022-09-13T02:55:54.152Z,27.70
2022-09-13T02:58:26.287Z,28.67
2022-09-13T03:00:54.245Z,28.48
2022-09-13T03:03:21.412Z,25.40
2022-09-13T03:05:48.569Z,32.50
2022-09-13T03:08:15.720Z,25.52
2022-09-13T03:10:43.235Z,26.60
2022-09-13T03:13:37.636Z,30.50
2022-09-13T03:16:04.764Z,26.33
2022-09-13T03:18:31.912Z,29.40
2022-09-13T03:21:01.793Z,23.88
2022-09-13T03:23:42.500Z,24.77
2022-09-13T03:26:15.478Z,24.60
2022-09-13T03:28:54.462Z,22.88
2022-09-13T03:31:32.497Z,24.50
2022-09-13T03:34:07.126Z,23.23
2022-09-13T03:36:34.357Z,21.83
2022-09-13T03:39:02.409Z,25.50
2022-09-13T03:41:32.410Z,24.48
2022-09-13T03:44:06.536Z,19.63
2022-09-13T03:46:38.298Z,24.13
2022-09-13T03:49:06.135Z,19.05
2022-09-13T03:51:33.262Z,21.17
2022-09-13T03:54:02.238Z,20.33
2022-09-13T03:56:29.387Z,16.98
2022-09-13T03:58:56.474Z,17.02
2022-09-13T04:01:24.240Z,18.10
2022-09-13T04:03:55.862Z,20.05
2022-09-13T04:06:23.855Z,16.83
2022-09-13T04:08:51.269Z,14.73
2022-09-13T04:11:18.436Z,15.20
2022-09-13T04:13:45.532Z,20.17
2022-09-13T04:16:12.702Z,16.25
2022-09-13T04:18:39.830Z,13.90
2022-09-13T04:21:07.315Z,12.38
2022-09-13T04:23:34.481Z,13.48
2022-09-13T04:26:02.237Z,12.77
2022-09-13T04:28:29.377Z,13.50
2022-09-13T04:30:56.529Z,14.88
2022-09-13T04:33:23.951Z,16.52
2022-09-13T04:35:54.784Z,14.88
2022-09-13T04:38:21.904Z,17.30
2022-09-13T04:40:53.496Z,16.08
2022-09-13T04:43:20.621Z,16.23
2022-09-13T04:45:47.934Z,13.55
2022-09-13T04:48:15.698Z,14.05
2022-09-13T04:50:43.142Z,16.38
2022-09-13T04:53:10.257Z,14.95
2022-09-13T04:55:37.343Z,16.65
2022-09-13T04:58:04.958Z,23.75
2022-09-13T05:00:32.340Z,30.65
2022-09-13T05:02:59.435Z,41.08
2022-09-13T05:05:28.727Z,56.15
2022-09-13T05:07:55.987Z,31.98
2022-09-13T05:10:23.158Z,29.75
2022-09-13T05:12:50.256Z,23.08
2022-09-13T05:15:17.487Z,27.90
2022-09-13T05:17:44.662Z,30.35
2022-09-13T05:20:11.854Z,35.05
2022-09-13T05:22:39.030Z,27.52
2022-09-13T05:25:06.437Z,19.60
2022-09-13T05:27:33.545Z,24.70
2022-09-13T05:30:00.710Z,26.38
2022-09-13T05:32:27.909Z,35.63
2022-09-13T05:34:55.023Z,19.15
2022-09-13T05:37:22.144Z,22.27
2022-09-13T05:40:10.223Z,19.25
2022-09-13T05:42:36.390Z,21.10
2022-09-13T05:45:03.936Z,16.42
2022-09-13T05:47:31.094Z,23.83
2022-09-13T05:50:23.196Z,23.38
2022-09-13T05:52:45.287Z,29.33
2022-09-13T05:55:12.418Z,25.00
2022-09-13T05:57:39.648Z,26.27
2022-09-13T06:00:06.995Z,27.45
2022-09-13T06:02:34.199Z,33.05
2022-09-13T06:05:01.343Z,35.15
2022-09-13T06:07:28.754Z,29.23
2022-09-13T06:09:56.016Z,27.05
2022-09-13T06:12:23.135Z,26.35
2022-09-13T06:14:50.253Z,24.45
2022-09-13T06:17:17.365Z,26.83
2022-09-13T06:19:44.547Z,25.88
2022-09-13T06:22:11.637Z,29.38
2022-09-13T06:24:38.757Z,26.77
2022-09-13T06:27:06.024Z,24.73
2022-09-13T06:29:33.257Z,24.20
2022-09-13T06:32:00.377Z,26.17
2022-09-13T06:34:31.376Z,24.85
2022-09-13T06:36:58.731Z,24.77
2022-09-13T06:39:26.064Z,22.75
2022-09-13T06:41:53.166Z,25.48
2022-09-13T06:44:20.265Z,26.85
2022-09-13T06:46:47.453Z,23.27
2022-09-13T06:49:14.583Z,25.00
2022-09-13T06:51:41.666Z,30.02
2022-09-13T06:54:08.921Z,24.38
2022-09-13T06:56:36.781Z,14.00
2022-09-13T06:59:05.103Z,15.13
2022-09-13T07:01:33.152Z,15.60
2022-09-13T07:04:01.239Z,12.95
2022-09-13T07:06:29.235Z,16.77
2022-09-13T07:08:56.745Z,10.55
2022-09-13T07:11:24.536Z,10.80
2022-09-13T07:13:52.367Z,12.38
2022-09-13T07:16:19.980Z,9.05
2022-09-13T07:18:51.464Z,9.38
2022-09-13T07:21:18.570Z,8.77
2022-09-13T07:23:45.702Z,10.23
2022-09-13T07:26:12.828Z,16.20
2022-09-13T07:28:40.819Z,18.13
2022-09-13T07:31:15.074Z,5.97
2022-09-13T07:33:42.652Z,3.90
2022-09-13T07:36:11.423Z,4.80
2022-09-13T07:38:39.124Z,3.38
2022-09-13T07:41:08.786Z,3.88
2022-09-13T07:43:36.445Z,4.07
2022-09-13T07:46:04.598Z,3.20
2022-09-13T07:48:33.687Z,2.70
2022-09-13T07:51:00.917Z,3.30
2022-09-13T07:53:28.136Z,4.05
2022-09-13T07:55:55.391Z,2.80
2022-09-13T07:58:22.483Z,2.60
2022-09-13T08:00:49.618Z,2.30
2022-09-13T08:03:16.750Z,2.42
2022-09-13T08:05:43.863Z,2.40
2022-09-13T08:08:10.990Z,2.30
2022-09-13T08:10:38.102Z,2.53
2022-09-13T08:13:05.223Z,2.97
2022-09-13T08:15:32.421Z,2.15
2022-09-13T08:17:59.549Z,2.10
2022-09-13T08:20:26.675Z,1.83
2022-09-13T08:22:53.805Z,1.83
2022-09-13T08:25:20.949Z,1.40
2022-09-13T08:27:48.113Z,1.40
2022-09-13T08:30:15.272Z,2.17
2022-09-13T08:32:42.372Z,2.13
2022-09-13T08:35:09.973Z,2.35
2022-09-13T08:37:37.158Z,1.33
2022-09-13T08:40:04.740Z,1.20
2022-09-13T08:42:35.949Z,1.73
2022-09-13T08:45:03.072Z,2.00
2022-09-13T08:47:39.441Z,1.38
2022-09-13T08:50:20.551Z,2.97
2022-09-13T08:52:59.986Z,1.60
2022-09-13T08:55:32.969Z,2.17
2022-09-13T08:58:13.705Z,1.35
2022-09-13T09:00:41.578Z,1.40
2022-09-13T09:03:11.829Z,1.33
2022-09-13T09:05:47.873Z,1.30
2022-09-13T09:08:32.116Z,1.60
2022-09-13T09:11:00.125Z,1.58
2022-09-13T09:13:33.908Z,1.50
2022-09-13T09:16:02.340Z,1.63
2022-09-13T09:18:43.261Z,1.48
2022-09-13T09:21:11.906Z,1.90
2022-09-13T09:23:40.140Z,1.63
2022-09-13T09:26:15.136Z,3.13
2022-09-13T09:28:42.637Z,1.42
2022-09-13T09:31:10.704Z,1.20
2022-09-13T09:33:44.601Z,1.25
2022-09-13T09:36:28.928Z,2.60
2022-09-13T09:38:56.197Z,1.70
2022-09-13T09:41:31.603Z,1.63
2022-09-13T09:44:07.624Z,1.50
2022-09-13T09:46:35.410Z,4.40
2022-09-13T09:49:34.300Z,1.60
2022-09-13T09:52:03.149Z,1.30
2022-09-13T09:54:31.508Z,1.88
2022-09-13T09:56:58.626Z,1.58
2022-09-13T09:59:26.387Z,1.15
2022-09-13T10:01:58.246Z,1.20
2022-09-13T10:04:25.937Z,1.17
2022-09-13T10:07:10.584Z,1.38
2022-09-13T10:09:40.898Z,3.15
2022-09-13T10:12:08.487Z,1.30
2022-09-13T10:14:39.634Z,1.00
2022-09-13T10:17:18.098Z,1.15
2022-09-13T10:19:55.806Z,2.42
2022-09-13T10:22:23.122Z,2.10
2022-09-13T10:24:50.711Z,1.23
2022-09-13T10:27:20.586Z,1.10
2022-09-13T10:29:48.933Z,1.27
2022-09-13T10:32:19.728Z,1.73
2022-09-13T10:34:47.171Z,1.33
2022-09-13T10:37:17.297Z,1.38
2022-09-13T10:39:53.140Z,1.55
2022-09-13T10:42:21.919Z,1.20
2022-09-13T10:45:06.084Z,1.48
2022-09-13T10:47:39.304Z,1.13
2022-09-13T10:50:33.651Z,1.50
2022-09-13T10:53:01.354Z,1.40
2022-09-13T10:55:31.834Z,1.27
2022-09-13T10:58:02.373Z,1.73
2022-09-13T11:00:35.938Z,2.70
2022-09-13T11:03:14.446Z,1.08
2022-09-13T11:05:53.880Z,1.17
2022-09-13T11:08:56.303Z,1.20
2022-09-13T11:11:25.261Z,1.40
2022-09-13T11:14:04.972Z,2.45
2022-09-13T11:16:41.295Z,1.55
2022-09-13T11:19:11.771Z,1.20
2022-09-13T11:21:48.142Z,1.60
2022-09-13T11:24:36.080Z,1.52
2022-09-13T11:27:04.639Z,1.58
2022-09-13T11:29:37.812Z,1.73
2022-09-13T11:32:10.710Z,1.42
2022-09-13T11:34:43.782Z,1.15
2022-09-13T11:37:11.326Z,1.25
2022-09-13T11:39:47.895Z,2.45
2022-09-13T11:42:33.862Z,1.70
2022-09-13T11:45:07.740Z,2.55
2022-09-13T11:47:37.866Z,4.55
2022-09-13T11:50:16.950Z,5.45
2022-09-13T11:52:48.161Z,1.27
2022-09-13T11:55:19.423Z,1.10
2022-09-13T11:57:50.992Z,2.55
2022-09-13T12:00:18.447Z,2.88
2022-09-13T12:02:48.521Z,1.40
2022-09-13T12:05:23.439Z,1.73
2022-09-13T12:07:51.633Z,1.65
2022-09-13T12:10:38.572Z,2.30
2022-09-13T12:13:06.130Z,1.50
2022-09-13T12:15:36.326Z,1.52
2022-09-13T12:18:07.845Z,1.20
2022-09-13T12:20:35.961Z,1.45
2022-09-13T12:23:03.957Z,1.50
2022-09-13T12:25:39.393Z,1.27
2022-09-13T12:28:27.304Z,9.23
2022-09-13T12:30:56.577Z,1.52
2022-09-13T12:33:23.766Z,1.50
2022-09-13T12:36:09.216Z,2.65
2022-09-13T12:38:56.631Z,2.50
2022-09-13T12:41:23.750Z,8.95
2022-09-13T12:43:50.928Z,1.70
2022-09-13T12:46:22.086Z,1.67
2022-09-13T12:48:50.330Z,1.63
2022-09-13T12:51:23.238Z,1.65
2022-09-13T12:53:56.941Z,1.50
2022-09-13T12:56:24.065Z,1.92
2022-09-13T12:59:09.874Z,11.32
2022-09-13T13:01:37.670Z,1.90
2022-09-13T13:04:15.131Z,2.30
2022-09-13T13:06:48.751Z,3.60
2022-09-13T13:09:25.304Z,35.25
2022-09-13T13:11:55.781Z,2.20
2022-09-13T13:14:31.808Z,1.63
2022-09-13T13:17:17.435Z,1.70
2022-09-13T13:19:45.169Z,2.40
2022-09-13T13:22:30.854Z,1.77
2022-09-13T13:24:57.980Z,1.92
2022-09-13T13:27:35.846Z,2.28
2022-09-13T13:30:34.730Z,2.03
2022-09-13T13:33:19.864Z,2.05
2022-09-13T13:35:47.018Z,2.05
2022-09-13T13:38:18.259Z,2.00
2022-09-13T13:40:46.174Z,2.03
2022-09-13T13:43:32.572Z,2.20
2022-09-13T13:46:11.661Z,3.40
2022-09-13T13:48:40.014Z,2.47
2022-09-13T13:51:36.379Z,2.40
2022-09-13T13:54:05.868Z,2.60
2022-09-13T13:56:47.097Z,3.50
2022-09-13T13:59:18.934Z,2.42
2022-09-13T14:01:47.651Z,2.08
2022-09-13T14:04:31.374Z,2.92
2022-09-13T14:07:00.429Z,4.70
2022-09-13T14:09:34.049Z,2.38
2022-09-13T14:12:13.466Z,2.25
2022-09-13T14:14:58.847Z,4.95
2022-09-13T14:17:26.058Z,2.67
2022-09-13T14:19:55.571Z,2.42
2022-09-13T14:22:23.340Z,3.40
2022-09-13T14:24:51.510Z,2.50
2022-09-13T14:27:21.646Z,3.28
2022-09-13T14:30:09.452Z,3.47
2022-09-13T14:32:46.386Z,2.72
2022-09-13T14:35:33.992Z,2.80
2022-09-13T14:38:11.733Z,3.20
2022-09-13T14:40:39.070Z,2.72
2022-09-13T14:43:25.363Z,3.15
2022-09-13T14:46:12.907Z,3.10
2022-09-13T14:48:41.202Z,3.50
2022-09-13T14:51:13.114Z,3.22
2022-09-13T14:53:40.203Z,2.92
2022-09-13T14:56:08.413Z,3.00
2022-09-13T14:58:35.517Z,7.10
2022-09-13T15:01:06.785Z,5.15
2022-09-13T15:03:33.975Z,5.32
2022-09-13T15:06:01.954Z,3.92
2022-09-13T15:08:35.167Z,3.53
2022-09-13T15:11:02.888Z,3.47
2022-09-13T15:13:30.004Z,3.70
2022-09-13T15:15:57.174Z,3.58
2022-09-13T15:18:25.605Z,3.15
2022-09-13T15:21:02.020Z,3.67
2022-09-13T15:23:29.187Z,4.05
2022-09-13T15:25:57.259Z,4.80
2022-09-13T15:28:25.701Z,4.10
2022-09-13T15:30:52.827Z,3.65
2022-09-13T15:33:24.139Z,3.60
2022-09-13T15:35:52.637Z,4.68
2022-09-13T15:38:27.056Z,4.10
2022-09-13T15:41:03.253Z,4.82
2022-09-13T15:43:31.326Z,4.50
2022-09-13T15:45:59.088Z,4.10
2022-09-13T15:48:30.567Z,7.55
2022-09-13T15:51:08.423Z,5.30
2022-09-13T15:53:36.242Z,5.03
2022-09-13T15:56:03.740Z,5.28
2022-09-13T15:58:30.913Z,4.57
2022-09-13T16:00:58.088Z,4.50
2022-09-13T16:03:25.291Z,4.07
2022-09-13T16:05:53.682Z,3.60
2022-09-13T16:08:21.000Z,3.35
2022-09-13T16:10:48.175Z,4.32
2022-09-13T16:13:15.566Z,3.65
2022-09-13T16:15:42.815Z,3.45
2022-09-13T16:18:09.923Z,3.42
2022-09-13T16:20:37.050Z,3.58
2022-09-13T16:23:04.169Z,4.88
2022-09-13T16:25:32.040Z,4.10
2022-09-13T16:27:59.937Z,4.40
2022-09-13T16:30:30.449Z,4.50
2022-09-13T16:32:58.029Z,4.60
2022-09-13T16:35:28.859Z,4.82
2022-09-13T16:37:56.036Z,5.53
2022-09-13T16:40:23.611Z,4.97
2022-09-13T16:42:50.788Z,6.38
2022-09-13T16:45:18.114Z,5.07
2022-09-13T16:47:45.222Z,3.65
2022-09-13T16:50:12.777Z,3.60
2022-09-13T16:52:39.945Z,3.47
2022-09-13T16:55:07.271Z,3.85
2022-09-13T16:57:34.545Z,4.00
2022-09-13T17:00:03.828Z,3.97
2022-09-13T17:02:31.147Z,3.92
2022-09-13T17:04:58.473Z,6.45
2022-09-13T17:07:25.717Z,6.47
2022-09-13T17:09:52.831Z,3.75
2022-09-13T17:12:19.946Z,6.00
2022-09-13T17:14:47.576Z,10.23
2022-09-13T17:17:15.945Z,8.82
2022-09-13T17:19:43.268Z,22.38
2022-09-13T17:22:11.140Z,21.50
2022-09-13T17:24:38.376Z,21.52
2022-09-13T17:27:06.758Z,7.47
2022-09-13T17:29:34.496Z,4.88
2022-09-13T17:32:02.089Z,73.70
2022-09-13T17:34:30.784Z,12.88
2022-09-13T17:36:58.127Z,5.32
2022-09-13T17:39:25.242Z,16.30
2022-09-13T17:41:52.426Z,13.90
2022-09-13T17:44:19.704Z,17.95
2022-09-13T17:46:46.895Z,21.30
2022-09-13T17:49:14.139Z,13.60
2022-09-13T17:51:41.590Z,9.63
2022-09-13T17:54:10.091Z,9.57
2022-09-13T17:56:38.094Z,4.82
2022-09-13T17:59:09.658Z,4.32
2022-09-13T18:01:37.760Z,4.20
2022-09-13T18:04:05.067Z,4.65
2022-09-13T18:06:32.263Z,6.30
2022-09-13T18:08:59.578Z,7.90
2022-09-13T18:11:26.782Z,7.68
2022-09-13T18:13:53.961Z,6.95
2022-09-13T18:16:23.295Z,12.55
2022-09-13T18:18:50.850Z,16.25
2022-09-13T18:21:19.187Z,20.50
2022-09-13T18:23:46.890Z,18.80
2022-09-13T18:26:15.143Z,12.20
2022-09-13T18:28:45.261Z,7.35
2022-09-13T18:31:16.327Z,5.13
2022-09-13T18:33:43.623Z,7.18
2022-09-13T18:36:11.743Z,6.53
2022-09-13T18:38:42.408Z,4.88
2022-09-13T18:41:10.558Z,6.32
2022-09-13T18:43:39.034Z,15.90
2022-09-13T18:46:07.579Z,14.18
2022-09-13T18:48:38.720Z,13.43
2022-09-13T18:51:06.021Z,17.92
2022-09-13T18:53:35.145Z,21.08
2022-09-13T18:56:03.018Z,38.45
2022-09-13T18:58:33.570Z,37.10
2022-09-13T19:01:04.196Z,40.70
2022-09-13T19:03:32.129Z,57.38
2022-09-13T19:06:09.231Z,49.10
2022-09-13T19:08:36.351Z,34.92
2022-09-13T19:11:04.636Z,29.73
2022-09-13T19:13:31.975Z,30.27
2022-09-13T19:16:01.918Z,33.40
2022-09-13T19:18:29.088Z,34.15
2022-09-13T19:21:22.494Z,73.20
2022-09-13T19:24:08.119Z,133.68
2022-09-13T19:26:38.312Z,59.70
2022-09-13T19:29:07.359Z,51.70
2022-09-13T19:31:35.525Z,27.75
2022-09-13T19:34:03.144Z,8.57
2022-09-13T19:36:34.129Z,21.02
2022-09-13T19:39:01.656Z,13.57
2022-09-13T19:41:29.753Z,24.05
2022-09-13T19:44:00.595Z,13.13
2022-09-13T19:46:28.913Z,15.27
2022-09-13T19:48:56.473Z,12.43
2022-09-13T19:51:24.596Z,10.93
2022-09-13T19:53:57.610Z,9.68
2022-09-13T19:56:26.490Z,8.57
2022-09-13T19:58:53.818Z,121.88
2022-09-13T20:01:21.940Z,14.73
2022-09-13T20:03:56.255Z,14.50
2022-09-13T20:06:23.982Z,17.05
2022-09-13T20:08:51.487Z,17.25
2022-09-13T20:11:18.703Z,16.45
2022-09-13T20:13:46.164Z,18.17
2022-09-13T20:16:14.914Z,24.20
2022-09-13T20:18:42.642Z,23.65
2022-09-13T20:21:10.211Z,19.85
2022-09-13T20:23:37.744Z,12.38
2022-09-13T20:26:05.267Z,14.05
2022-09-13T20:28:32.593Z,13.52
2022-09-13T20:31:00.409Z,18.55
2022-09-13T20:33:27.832Z,14.90
2022-09-13T20:35:55.001Z,12.50
2022-09-13T20:38:22.264Z,14.40
2022-09-13T20:40:50.336Z,12.82
2022-09-13T20:43:17.492Z,14.65
2022-09-13T20:45:44.693Z,12.88
2022-09-13T20:48:12.193Z,13.52
2022-09-13T20:50:39.475Z,20.13
2022-09-13T20:53:06.582Z,15.27
2022-09-13T20:55:34.380Z,15.55
2022-09-13T20:58:01.597Z,13.85
2022-09-13T21:00:28.733Z,16.63
2022-09-13T21:02:55.947Z,5.55
2022-09-13T21:05:23.118Z,3.83
2022-09-13T21:08:08.819Z,6.68
2022-09-13T21:10:36.014Z,12.35
2022-09-13T21:13:03.901Z,13.20
2022-09-13T21:15:31.591Z,8.82
2022-09-13T21:17:58.739Z,7.70
2022-09-13T21:20:25.840Z,3.83
2022-09-13T21:22:53.971Z,3.42
2022-09-13T21:25:21.104Z,4.65
2022-09-13T21:27:48.191Z,4.55
2022-09-13T21:30:15.840Z,3.53
2022-09-13T21:32:42.989Z,3.58
2022-09-13T21:35:10.383Z,3.97
2022-09-13T21:37:37.505Z,3.50
2022-09-13T21:40:05.052Z,3.42
2022-09-13T21:42:33.099Z,3.10
2022-09-13T21:45:00.243Z,5.15
2022-09-13T21:47:28.317Z,3.25
2022-09-13T21:49:55.645Z,3.50
2022-09-13T21:52:22.917Z,4.45
2022-09-13T21:54:50.028Z,5.63
2022-09-13T21:57:17.135Z,3.28
2022-09-13T21:59:44.288Z,3.05
2022-09-13T22:02:11.950Z,4.22
2022-09-13T22:04:39.834Z,3.72
2022-09-13T22:07:06.991Z,3.47
2022-09-13T22:09:34.314Z,3.40
2022-09-13T22:12:01.438Z,5.30
2022-09-13T22:14:28.578Z,3.33
2022-09-13T22:16:55.834Z,3.53
2022-09-13T22:19:26.751Z,3.40
2022-09-13T22:21:59.293Z,3.45
2022-09-13T22:24:27.242Z,3.63
2022-09-13T22:26:55.312Z,3.75
2022-09-13T22:29:22.546Z,3.63
2022-09-13T22:31:50.075Z,4.28
2022-09-13T22:34:18.065Z,3.60
2022-09-13T22:36:45.212Z,3.50
2022-09-13T22:39:12.702Z,3.72
2022-09-13T22:41:39.783Z,3.58
2022-09-13T22:44:06.894Z,3.50
2022-09-13T22:46:35.464Z,3.40
2022-09-13T22:49:02.607Z,3.70
2022-09-13T22:51:29.801Z,4.68
2022-09-13T22:53:56.969Z,4.25
2022-09-13T22:56:25.043Z,3.75
2022-09-13T22:58:55.651Z,3.60
2022-09-13T23:01:22.920Z,4.30
2022-09-13T23:03:50.361Z,3.92
2022-09-13T23:06:21.173Z,4.47
2022-09-13T23:08:48.736Z,5.72
2022-09-13T23:11:16.844Z,11.65
2022-09-13T23:13:44.501Z,27.33
2022-09-13T23:16:31.930Z,22.60
2022-09-13T23:18:59.174Z,20.25
2022-09-13T23:21:27.135Z,19.85
2022-09-13T23:23:54.358Z,12.77
2022-09-13T23:26:22.790Z,8.52
2022-09-13T23:28:53.886Z,10.60
2022-09-13T23:31:22.596Z,8.38
2022-09-13T23:33:51.322Z,7.03
2022-09-13T23:36:19.286Z,5.03
2022-09-13T23:38:47.057Z,4.70
2022-09-13T23:41:14.611Z,4.47
2022-09-13T23:43:41.712Z,4.20
2022-09-13T23:46:09.170Z,6.00
2022-09-13T23:48:36.390Z,4.07
2022-09-13T23:51:05.097Z,4.53
2022-09-13T23:53:32.290Z,4.70
2022-09-13T23:55:59.427Z,4.75
2022-09-13T23:58:26.529Z,4.95
